RYR4PR LKPR-EDDH
Flight info
| Callsign | RYR4PR |
|---|---|
| Flight time | 0h 53m |
| Altitude | 32000 |
| Route | VENOX DCT DEKOV Y621 ESLOR M748 RARUP RARUP6A |
| Aircraft | B738/M-SDE2E3FGHIRWXY/LB1 |
Departure
| Time | 2026-05-07 18:20 |
|---|---|
| Airport | Václav Havel Airport Prague (LKPR) |
Arrival
| Time | 2026-05-07 19:14 |
|---|---|
| Airport | Hamburg Helmut Schmidt Airport (EDDH) |
| Time | Latitude | Longitude | Altitude | Speed | Heading |
|---|---|---|---|---|---|
| 2026-05-07 18:01 | 50.10893 | 14.25719 | 1162 ft | 0 kts | 304° |
| 2026-05-07 18:08 | 50.10881 | 14.25747 | 1161 ft | 4 kts | 296° |
| 2026-05-07 18:08 | 50.10873 | 14.25785 | 1163 ft | 4 kts | 272° |
| 2026-05-07 18:09 | 50.10878 | 14.25821 | 1162 ft | 4 kts | 221° |
| 2026-05-07 18:09 | 50.10881 | 14.25826 | 1162 ft | 1 kts | 214° |
| 2026-05-07 18:14 | 50.10856 | 14.25799 | 1164 ft | 9 kts | 214° |
| 2026-05-07 18:14 | 50.10787 | 14.25726 | 1166 ft | 14 kts | 214° |
| 2026-05-07 18:15 | 50.10696 | 14.25630 | 1170 ft | 16 kts | 208° |
| 2026-05-07 18:15 | 50.10615 | 14.25702 | 1174 ft | 16 kts | 118° |
| 2026-05-07 18:15 | 50.10540 | 14.25896 | 1172 ft | 27 kts | 125° |
| 2026-05-07 18:15 | 50.10421 | 14.26140 | 1173 ft | 28 kts | 127° |
| 2026-05-07 18:16 | 50.10307 | 14.26375 | 1173 ft | 26 kts | 127° |
| 2026-05-07 18:16 | 50.10206 | 14.26588 | 1174 ft | 23 kts | 126° |
| 2026-05-07 18:16 | 50.10117 | 14.26767 | 1182 ft | 19 kts | 127° |
| 2026-05-07 18:16 | 50.10052 | 14.26904 | 1190 ft | 14 kts | 127° |
| 2026-05-07 18:17 | 50.09992 | 14.27027 | 1196 ft | 14 kts | 128° |
| 2026-05-07 18:17 | 50.09948 | 14.27119 | 1198 ft | 18 kts | 126° |
| 2026-05-07 18:17 | 50.09859 | 14.27300 | 1201 ft | 25 kts | 131° |
| 2026-05-07 18:17 | 50.09729 | 14.27503 | 1205 ft | 27 kts | 135° |
| 2026-05-07 18:18 | 50.09564 | 14.27596 | 1212 ft | 16 kts | 214° |
| 2026-05-07 18:18 | 50.09512 | 14.27537 | 1212 ft | 12 kts | 215° |
| 2026-05-07 18:18 | 50.09449 | 14.27463 | 1209 ft | 11 kts | 218° |
| 2026-05-07 18:18 | 50.09429 | 14.27383 | 1208 ft | 7 kts | 290° |
| 2026-05-07 18:19 | 50.09453 | 14.27325 | 1207 ft | 8 kts | 304° |
| 2026-05-07 18:19 | 50.09531 | 14.27165 | 1205 ft | 44 kts | 307° |
| 2026-05-07 18:19 | 50.09836 | 14.26535 | 1205 ft | 93 kts | 306° |
| 2026-05-07 18:19 | 50.10279 | 14.25607 | 1184 ft | 130 kts | 305° |
| 2026-05-07 18:20 | 50.10968 | 14.24272 | 1651 ft | 171 kts | 309° |
| 2026-05-07 18:20 | 50.11753 | 14.22784 | 2739 ft | 189 kts | 310° |
| 2026-05-07 18:20 | 50.12586 | 14.21061 | 3719 ft | 201 kts | 306° |
| 2026-05-07 18:20 | 50.13433 | 14.19177 | 4331 ft | 222 kts | 306° |
| 2026-05-07 18:21 | 50.14381 | 14.17166 | 4777 ft | 241 kts | 306° |
| 2026-05-07 18:21 | 50.15421 | 14.14979 | 4999 ft | 257 kts | 306° |
| 2026-05-07 18:21 | 50.16493 | 14.12737 | 5039 ft | 258 kts | 306° |
| 2026-05-07 18:21 | 50.17582 | 14.10467 | 5667 ft | 262 kts | 306° |
| 2026-05-07 18:22 | 50.18662 | 14.08215 | 6779 ft | 260 kts | 305° |
| 2026-05-07 18:22 | 50.19400 | 14.06678 | 7380 ft | 264 kts | 305° |
| 2026-05-07 18:22 | 50.20883 | 14.03583 | 8534 ft | 271 kts | 304° |
| 2026-05-07 18:22 | 50.22155 | 14.01359 | 9366 ft | 282 kts | 324° |
| 2026-05-07 18:23 | 50.24023 | 14.00344 | 10150 ft | 293 kts | 356° |
| 2026-05-07 18:23 | 50.26105 | 14.00695 | 10680 ft | 313 kts | 11° |
| 2026-05-07 18:23 | 50.28312 | 14.01567 | 10870 ft | 340 kts | 15° |
| 2026-05-07 18:23 | 50.30616 | 14.02605 | 11552 ft | 348 kts | 15° |
| 2026-05-07 18:24 | 50.32955 | 14.03674 | 12361 ft | 354 kts | 15° |
| 2026-05-07 18:24 | 50.35339 | 14.04743 | 13149 ft | 359 kts | 15° |
| 2026-05-07 18:24 | 50.37752 | 14.05803 | 14016 ft | 361 kts | 14° |
| 2026-05-07 18:24 | 50.40154 | 14.06843 | 14748 ft | 365 kts | 14° |
| 2026-05-07 18:25 | 50.42626 | 14.07902 | 15450 ft | 369 kts | 14° |
| 2026-05-07 18:25 | 50.45098 | 14.08957 | 15915 ft | 365 kts | 14° |
| 2026-05-07 18:25 | 50.47573 | 14.10012 | 16037 ft | 375 kts | 13° |
| 2026-05-07 18:25 | 50.50104 | 14.11091 | 16032 ft | 377 kts | 14° |
| 2026-05-07 18:26 | 50.52621 | 14.12165 | 16032 ft | 373 kts | 14° |
| 2026-05-07 18:26 | 50.55121 | 14.13232 | 16026 ft | 371 kts | 13° |
| 2026-05-07 18:26 | 50.57642 | 14.14079 | 16034 ft | 371 kts | 9° |
| 2026-05-07 18:26 | 50.60197 | 14.14699 | 16032 ft | 370 kts | 6° |
| 2026-05-07 18:27 | 50.62752 | 14.15254 | 16033 ft | 370 kts | 6° |
| 2026-05-07 18:27 | 50.65312 | 14.15809 | 16036 ft | 371 kts | 7° |
| 2026-05-07 18:27 | 50.67865 | 14.16382 | 16033 ft | 371 kts | 7° |
| 2026-05-07 18:27 | 50.70390 | 14.16968 | 16033 ft | 371 kts | 7° |
| 2026-05-07 18:28 | 50.72991 | 14.17582 | 16177 ft | 376 kts | 7° |
| 2026-05-07 18:28 | 50.75553 | 14.18190 | 16869 ft | 379 kts | 7° |
| 2026-05-07 18:28 | 50.78183 | 14.18224 | 17671 ft | 378 kts | 348° |
| 2026-05-07 18:28 | 50.80623 | 14.16786 | 18537 ft | 374 kts | 328° |
| 2026-05-07 18:29 | 50.82746 | 14.14402 | 19242 ft | 376 kts | 323° |
| 2026-05-07 18:29 | 50.84860 | 14.11932 | 19837 ft | 380 kts | 322° |
| 2026-05-07 18:29 | 50.87008 | 14.09430 | 20419 ft | 385 kts | 323° |
| 2026-05-07 18:29 | 50.89183 | 14.06910 | 21028 ft | 389 kts | 323° |
| 2026-05-07 18:30 | 50.91377 | 14.04380 | 21701 ft | 391 kts | 323° |
| 2026-05-07 18:30 | 50.93587 | 14.01840 | 22353 ft | 393 kts | 324° |
| 2026-05-07 18:30 | 50.95817 | 13.99281 | 22889 ft | 398 kts | 324° |
| 2026-05-07 18:30 | 50.98069 | 13.96699 | 23495 ft | 401 kts | 324° |
| 2026-05-07 18:31 | 51.00342 | 13.94094 | 23972 ft | 405 kts | 324° |
| 2026-05-07 18:31 | 51.02632 | 13.91467 | 24436 ft | 408 kts | 324° |
| 2026-05-07 18:31 | 51.04944 | 13.88812 | 24904 ft | 411 kts | 324° |
| 2026-05-07 18:31 | 51.07269 | 13.86138 | 25397 ft | 413 kts | 324° |
| 2026-05-07 18:32 | 51.09616 | 13.83435 | 25851 ft | 417 kts | 324° |
| 2026-05-07 18:32 | 51.11962 | 13.80731 | 26280 ft | 420 kts | 324° |
| 2026-05-07 18:32 | 51.14332 | 13.77994 | 26764 ft | 422 kts | 324° |
| 2026-05-07 18:32 | 51.16718 | 13.75236 | 27205 ft | 424 kts | 324° |
| 2026-05-07 18:33 | 51.19116 | 13.72460 | 27599 ft | 427 kts | 324° |
| 2026-05-07 18:33 | 51.21526 | 13.69666 | 28084 ft | 428 kts | 324° |
| 2026-05-07 18:33 | 51.23925 | 13.66882 | 28708 ft | 426 kts | 324° |
| 2026-05-07 18:33 | 51.26291 | 13.64133 | 29269 ft | 425 kts | 323° |
| 2026-05-07 18:34 | 51.28684 | 13.61348 | 29773 ft | 425 kts | 323° |
| 2026-05-07 18:34 | 51.31074 | 13.58563 | 30294 ft | 424 kts | 323° |
| 2026-05-07 18:34 | 51.33458 | 13.55782 | 30740 ft | 424 kts | 323° |
| 2026-05-07 18:34 | 51.35844 | 13.52994 | 31125 ft | 425 kts | 323° |
| 2026-05-07 18:35 | 51.38229 | 13.50202 | 31544 ft | 424 kts | 323° |
| 2026-05-07 18:35 | 51.40593 | 13.47432 | 32051 ft | 422 kts | 323° |
| 2026-05-07 18:35 | 51.42971 | 13.44642 | 32054 ft | 424 kts | 323° |
| 2026-05-07 18:36 | 51.47707 | 13.39077 | 32064 ft | 420 kts | 323° |
| 2026-05-07 18:36 | 51.52428 | 13.33516 | 32084 ft | 421 kts | 323° |
| 2026-05-07 18:37 | 51.57155 | 13.27932 | 32094 ft | 423 kts | 323° |
| 2026-05-07 18:37 | 51.61902 | 13.22308 | 32081 ft | 424 kts | 323° |
| 2026-05-07 18:38 | 51.66650 | 13.16669 | 32079 ft | 425 kts | 323° |
| 2026-05-07 18:38 | 51.71401 | 13.11011 | 32080 ft | 423 kts | 323° |
| 2026-05-07 18:39 | 51.76120 | 13.05376 | 32082 ft | 421 kts | 323° |
| 2026-05-07 18:39 | 51.80808 | 12.99764 | 32087 ft | 418 kts | 323° |
| 2026-05-07 18:40 | 51.85444 | 12.94199 | 32090 ft | 417 kts | 323° |
| 2026-05-07 18:40 | 51.90107 | 12.88587 | 32090 ft | 418 kts | 323° |
| 2026-05-07 18:41 | 51.94772 | 12.82958 | 32092 ft | 419 kts | 323° |
| 2026-05-07 18:41 | 51.99450 | 12.77298 | 32091 ft | 420 kts | 323° |
| 2026-05-07 18:42 | 52.04136 | 12.71612 | 32092 ft | 421 kts | 323° |
| 2026-05-07 18:42 | 52.08823 | 12.65911 | 32089 ft | 421 kts | 323° |
| 2026-05-07 18:43 | 52.13519 | 12.60183 | 32092 ft | 421 kts | 323° |
| 2026-05-07 18:43 | 52.18172 | 12.54493 | 32077 ft | 420 kts | 323° |
| 2026-05-07 18:44 | 52.22836 | 12.48773 | 32095 ft | 419 kts | 323° |
| 2026-05-07 18:44 | 52.27750 | 12.43663 | 32099 ft | 419 kts | 331° |
| 2026-05-07 18:45 | 52.32881 | 12.39282 | 32088 ft | 411 kts | 332° |
| 2026-05-07 18:45 | 52.35385 | 12.37181 | 32066 ft | 397 kts | 333° |
| 2026-05-07 18:45 | 52.37806 | 12.35158 | 32075 ft | 384 kts | 332° |
| 2026-05-07 18:45 | 52.40149 | 12.33206 | 32067 ft | 372 kts | 333° |
| 2026-05-07 18:46 | 52.42416 | 12.31319 | 32074 ft | 360 kts | 332° |
| 2026-05-07 18:46 | 52.44611 | 12.29496 | 32073 ft | 348 kts | 333° |
| 2026-05-07 18:46 | 52.46732 | 12.27736 | 32072 ft | 336 kts | 332° |
| 2026-05-07 18:47 | 52.50835 | 12.24338 | 32101 ft | 334 kts | 332° |
| 2026-05-07 18:47 | 52.55073 | 12.20818 | 32112 ft | 352 kts | 332° |
| 2026-05-07 18:48 | 52.59014 | 12.16302 | 32102 ft | 345 kts | 301° |
| 2026-05-07 18:48 | 52.61794 | 12.09689 | 32125 ft | 364 kts | 315° |
| 2026-05-07 18:48 | 52.63664 | 12.06784 | 32106 ft | 375 kts | 317° |
| 2026-05-07 18:49 | 52.65614 | 12.03834 | 32119 ft | 385 kts | 317° |
| 2026-05-07 18:49 | 52.69635 | 11.97647 | 32116 ft | 405 kts | 315° |
| 2026-05-07 18:50 | 52.73786 | 11.91064 | 32116 ft | 423 kts | 315° |
| 2026-05-07 18:50 | 52.78077 | 11.84149 | 32112 ft | 439 kts | 315° |
| 2026-05-07 18:50 | 52.80280 | 11.80581 | 31890 ft | 451 kts | 315° |
| 2026-05-07 18:51 | 52.82562 | 11.76877 | 31358 ft | 467 kts | 315° |
| 2026-05-07 18:51 | 52.84877 | 11.73114 | 30844 ft | 462 kts | 315° |
| 2026-05-07 18:51 | 52.87146 | 11.69424 | 30340 ft | 453 kts | 315° |
| 2026-05-07 18:51 | 52.89375 | 11.65794 | 29787 ft | 445 kts | 315° |
| 2026-05-07 18:52 | 52.91542 | 11.62258 | 29224 ft | 442 kts | 315° |
| 2026-05-07 18:52 | 52.93747 | 11.58656 | 28668 ft | 446 kts | 315° |
| 2026-05-07 18:52 | 52.95960 | 11.55033 | 28123 ft | 451 kts | 315° |
| 2026-05-07 18:52 | 52.98199 | 11.51362 | 27585 ft | 453 kts | 315° |
| 2026-05-07 18:53 | 53.00444 | 11.47677 | 27063 ft | 453 kts | 315° |
| 2026-05-07 18:53 | 53.02685 | 11.43992 | 26541 ft | 453 kts | 315° |
| 2026-05-07 18:53 | 53.04924 | 11.40305 | 26034 ft | 453 kts | 315° |
| 2026-05-07 18:53 | 53.07160 | 11.36618 | 25417 ft | 455 kts | 315° |
| 2026-05-07 18:54 | 53.09408 | 11.32904 | 24807 ft | 453 kts | 315° |
| 2026-05-07 18:54 | 53.11625 | 11.29257 | 24352 ft | 445 kts | 316° |
| 2026-05-07 18:54 | 53.14017 | 11.25975 | 24218 ft | 446 kts | 323° |
| 2026-05-07 18:54 | 53.16572 | 11.23039 | 23873 ft | 447 kts | 325° |
| 2026-05-07 18:55 | 53.19149 | 11.20158 | 23195 ft | 443 kts | 325° |
| 2026-05-07 18:55 | 53.21690 | 11.17320 | 22510 ft | 436 kts | 325° |
| 2026-05-07 18:55 | 53.24183 | 11.14508 | 21848 ft | 429 kts | 324° |
| 2026-05-07 18:55 | 53.26630 | 11.11715 | 21197 ft | 425 kts | 324° |
| 2026-05-07 18:56 | 53.29055 | 11.08920 | 20556 ft | 421 kts | 324° |
| 2026-05-07 18:56 | 53.31454 | 11.06140 | 19936 ft | 418 kts | 324° |
| 2026-05-07 18:56 | 53.33834 | 11.03372 | 19324 ft | 415 kts | 324° |
| 2026-05-07 18:56 | 53.36198 | 11.00615 | 18725 ft | 413 kts | 324° |
| 2026-05-07 18:57 | 53.38520 | 10.97905 | 18103 ft | 411 kts | 324° |
| 2026-05-07 18:57 | 53.40860 | 10.95170 | 17431 ft | 409 kts | 324° |
| 2026-05-07 18:57 | 53.43185 | 10.92451 | 16773 ft | 406 kts | 324° |
| 2026-05-07 18:57 | 53.45488 | 10.89753 | 16130 ft | 403 kts | 324° |
| 2026-05-07 18:58 | 53.47782 | 10.87063 | 15493 ft | 400 kts | 324° |
| 2026-05-07 18:58 | 53.50052 | 10.84397 | 14873 ft | 398 kts | 324° |
| 2026-05-07 18:58 | 53.52313 | 10.81737 | 14273 ft | 394 kts | 324° |
| 2026-05-07 18:58 | 53.54550 | 10.79105 | 13696 ft | 389 kts | 324° |
| 2026-05-07 18:59 | 53.56751 | 10.76511 | 13119 ft | 383 kts | 325° |
| 2026-05-07 18:59 | 53.58922 | 10.73949 | 12510 ft | 379 kts | 325° |
| 2026-05-07 18:59 | 53.60983 | 10.71217 | 11838 ft | 377 kts | 313° |
| 2026-05-07 18:59 | 53.62358 | 10.67500 | 11199 ft | 375 kts | 290° |
| 2026-05-07 19:00 | 53.62873 | 10.63238 | 10629 ft | 372 kts | 273° |
| 2026-05-07 19:00 | 53.62610 | 10.58921 | 10002 ft | 371 kts | 255° |
| 2026-05-07 19:00 | 53.61846 | 10.54866 | 9869 ft | 355 kts | 252° |
| 2026-05-07 19:00 | 53.61094 | 10.51051 | 9746 ft | 341 kts | 252° |
| 2026-05-07 19:01 | 53.60354 | 10.47303 | 9639 ft | 327 kts | 252° |
| 2026-05-07 19:01 | 53.59655 | 10.43737 | 9524 ft | 315 kts | 252° |
| 2026-05-07 19:01 | 53.58986 | 10.40301 | 9439 ft | 303 kts | 252° |
| 2026-05-07 19:01 | 53.58527 | 10.36911 | 9318 ft | 293 kts | 269° |
| 2026-05-07 19:02 | 53.58911 | 10.33651 | 9250 ft | 281 kts | 296° |
| 2026-05-07 19:02 | 53.60006 | 10.31037 | 9193 ft | 269 kts | 312° |
| 2026-05-07 19:02 | 53.61226 | 10.28769 | 9114 ft | 260 kts | 313° |
| 2026-05-07 19:02 | 53.62188 | 10.26269 | 8967 ft | 254 kts | 288° |
| 2026-05-07 19:03 | 53.62317 | 10.23347 | 8710 ft | 253 kts | 258° |
| 2026-05-07 19:03 | 53.61612 | 10.20675 | 8468 ft | 250 kts | 237° |
| 2026-05-07 19:03 | 53.60628 | 10.18236 | 8152 ft | 252 kts | 234° |
| 2026-05-07 19:03 | 53.59625 | 10.15853 | 7979 ft | 248 kts | 234° |
| 2026-05-07 19:04 | 53.58961 | 10.14284 | 7768 ft | 249 kts | 234° |
| 2026-05-07 19:04 | 53.57949 | 10.11895 | 7457 ft | 251 kts | 234° |
| 2026-05-07 19:04 | 53.56932 | 10.09496 | 7107 ft | 255 kts | 234° |
| 2026-05-07 19:04 | 53.55913 | 10.07105 | 6999 ft | 248 kts | 234° |
| 2026-05-07 19:05 | 53.54911 | 10.04767 | 6789 ft | 246 kts | 234° |
| 2026-05-07 19:05 | 53.53908 | 10.02435 | 6529 ft | 246 kts | 234° |
| 2026-05-07 19:05 | 53.52906 | 10.00106 | 6277 ft | 245 kts | 234° |
| 2026-05-07 19:05 | 53.51909 | 9.97780 | 6026 ft | 245 kts | 234° |
| 2026-05-07 19:06 | 53.50918 | 9.95454 | 5769 ft | 244 kts | 234° |
| 2026-05-07 19:06 | 53.48963 | 9.90816 | 5274 ft | 242 kts | 234° |
| 2026-05-07 19:06 | 53.47999 | 9.88503 | 5044 ft | 241 kts | 234° |
| 2026-05-07 19:07 | 53.47043 | 9.86194 | 4776 ft | 241 kts | 234° |
| 2026-05-07 19:07 | 53.46095 | 9.83889 | 4647 ft | 235 kts | 234° |
| 2026-05-07 19:07 | 53.45184 | 9.81671 | 4571 ft | 227 kts | 234° |
| 2026-05-07 19:07 | 53.44526 | 9.79331 | 4445 ft | 221 kts | 261° |
| 2026-05-07 19:08 | 53.44692 | 9.76849 | 4199 ft | 219 kts | 296° |
| 2026-05-07 19:08 | 53.45569 | 9.74812 | 3941 ft | 216 kts | 320° |
| 2026-05-07 19:08 | 53.46721 | 9.73207 | 3698 ft | 215 kts | 325° |
| 2026-05-07 19:08 | 53.48044 | 9.72172 | 3431 ft | 210 kts | 357° |
| 2026-05-07 19:09 | 53.49450 | 9.72518 | 3198 ft | 203 kts | 25° |
| 2026-05-07 19:09 | 53.50573 | 9.73929 | 3111 ft | 202 kts | 49° |
| 2026-05-07 19:09 | 53.51548 | 9.75647 | 3072 ft | 202 kts | 49° |
| 2026-05-07 19:09 | 53.52458 | 9.77375 | 2991 ft | 194 kts | 51° |
| 2026-05-07 19:10 | 53.53320 | 9.79106 | 2773 ft | 194 kts | 52° |
| 2026-05-07 19:10 | 53.54169 | 9.80833 | 2529 ft | 188 kts | 52° |
| 2026-05-07 19:10 | 53.54986 | 9.82493 | 2270 ft | 180 kts | 52° |
| 2026-05-07 19:10 | 53.55761 | 9.84067 | 2036 ft | 169 kts | 52° |
| 2026-05-07 19:11 | 53.56492 | 9.85551 | 1794 ft | 160 kts | 52° |
| 2026-05-07 19:11 | 53.57178 | 9.86945 | 1581 ft | 149 kts | 52° |
| 2026-05-07 19:11 | 53.57803 | 9.88211 | 1413 ft | 137 kts | 52° |
| 2026-05-07 19:11 | 53.58402 | 9.89429 | 1205 ft | 135 kts | 52° |
| 2026-05-07 19:12 | 53.58996 | 9.90632 | 1019 ft | 131 kts | 52° |
| 2026-05-07 19:12 | 53.59562 | 9.91781 | 842 ft | 126 kts | 51° |
| 2026-05-07 19:12 | 53.60126 | 9.92925 | 680 ft | 130 kts | 50° |
| 2026-05-07 19:12 | 53.60709 | 9.94105 | 479 ft | 132 kts | 50° |
| 2026-05-07 19:13 | 53.61302 | 9.95307 | 317 ft | 134 kts | 51° |
| 2026-05-07 19:13 | 53.61888 | 9.96503 | 132 ft | 129 kts | 50° |
| 2026-05-07 19:13 | 53.62435 | 9.97607 | 52 ft | 113 kts | 50° |
| 2026-05-07 19:13 | 53.62845 | 9.98438 | 52 ft | 71 kts | 50° |
| 2026-05-07 19:14 | 53.63056 | 9.98887 | 50 ft | 28 kts | 64° |
| 2026-05-07 19:14 | 53.63089 | 9.99071 | 51 ft | 14 kts | 85° |
| 2026-05-07 19:14 | 53.63083 | 9.99239 | 50 ft | 14 kts | 95° |
| 2026-05-07 19:14 | 53.63088 | 9.99353 | 50 ft | 3 kts | 77° |
| 2026-05-07 19:15 | 53.63089 | 9.99359 | 50 ft | 0 kts | 77° |
| 2026-05-07 19:15 | 53.63109 | 9.99425 | 49 ft | 10 kts | 57° |
| 2026-05-07 19:15 | 53.63157 | 9.99537 | 50 ft | 16 kts | 51° |
| 2026-05-07 19:15 | 53.63221 | 9.99685 | 50 ft | 14 kts | 76° |
| 2026-05-07 19:16 | 53.63171 | 9.99804 | 50 ft | 13 kts | 150° |
| 2026-05-07 19:16 | 53.63091 | 9.99873 | 50 ft | 13 kts | 153° |
| 2026-05-07 19:16 | 53.63013 | 9.99943 | 50 ft | 13 kts | 152° |
| 2026-05-07 19:16 | 53.62936 | 10.00014 | 50 ft | 13 kts | 151° |
| 2026-05-07 19:17 | 53.62853 | 10.00079 | 50 ft | 13 kts | 155° |
| 2026-05-07 19:17 | 53.62770 | 10.00150 | 50 ft | 14 kts | 153° |
| 2026-05-07 19:17 | 53.62713 | 10.00204 | 50 ft | 5 kts | 129° |
| 2026-05-07 19:17 | 53.62723 | 10.00264 | 48 ft | 6 kts | 61° |
| 2026-05-07 19:18 | 53.62735 | 10.00300 | 50 ft | 0 kts | 61° |